Home > Products > Valid Products > MTR

000
SAUS46 KSGX 231253
MTRCZZ
METAR KCZZ 231252Z AUTO 00000KT 02/00 A3003 RMK AO1 SLP158 T00170000





000
SAUS46 KSGX 231252
MTRSAN
METAR KSAN 231251Z 00000KT 10SM FEW017 SCT250 14/11 A3005 RMK AO2
SLP175 T01390106





000
SAUS46 KSGX 231153
MTRCZZ
METAR KCZZ 231152Z AUTO 08003KT 03/01 A3002 RMK AO1 SLP150 T00280011
10044 20011 56003





000
SAUS46 KSGX 231152
MTRSAN
METAR KSAN 231151Z 00000KT 10SM FEW013 SCT250 15/11 A3004 RMK AO2
SLP172 T01500111 10178 20144 57002





000
SAUS46 KSGX 231053
MTRCZZ
METAR KCZZ 231052Z AUTO 04003KT 02/01 A3002 RMK AO1 SLP150 T00220006





000
SAUS46 KSGX 231052
MTRSAN
METAR KSAN 231051Z 00000KT 10SM FEW250 15/11 A3005 RMK AO2 SLP174
T01500111





000
SAUS46 KSGX 230953
MTRCZZ
METAR KCZZ 230952Z AUTO 05005KT 02/01 A3002 RMK AO1 SLP149 T00170006





000
SAUS46 KSGX 230953
MTRCZZ
METAR KCZZ 230952Z AUTO 05005KT 02/01 A3002 RMK AO1 SLP149 T00170006





000
SAUS46 KSGX 230952
MTRSAN
METAR KSAN 230951Z 33003KT 10SM CLR 15/12 A3004 RMK AO2 SLP173
T01500117





000
SAUS46 KSGX 230952
MTRSAN
METAR KSAN 230951Z 33003KT 10SM CLR 15/12 A3004 RMK AO2 SLP173
T01500117





000
SAUS46 KSGX 230853
MTRCZZ
METAR KCZZ 230852Z AUTO 05004KT 02/01 A3003 RMK AO1 SLP152 T00220011
58009





000
SAUS46 KSGX 230852
MTRSAN
METAR KSAN 230851Z 11004KT 10SM FEW016 SCT250 16/12 A3005 RMK AO2
SLP174 T01610122 58009





000
SAUS46 KSGX 230753
MTRCZZ
METAR KCZZ 230752Z AUTO 06005KT 03/02 A3004 RMK AO1 SLP157 T00330017
402000011





000
SAUS46 KSGX 230752
MTRSAN
METAR KSAN 230751Z 00000KT 10SM FEW016 SCT250 16/13 A3006 RMK AO2
SLP180 T01610128 402170128





000
SAUS46 KSGX 230653
MTRCZZ
METAR KCZZ 230652Z AUTO 04004KT 04/02 A3005 RMK AO1 SLP161 T00390022





000
SAUS46 KSGX 230652
MTRSAN
METAR KSAN 230651Z 10005KT 10SM FEW017 SCT250 17/13 A3006 RMK AO2
SLP180 T01670133





000
SAUS46 KSGX 230553
MTRCZZ
METAR KCZZ 230552Z AUTO 03003KT 04/02 A3005 RMK AO1 SLP161 T00440022
10172 20039 53002





000
SAUS46 KSGX 230552
MTRSAN
METAR KSAN 230551Z 17003KT 10SM SCT017 BKN250 18/14 A3008 RMK AO2
SLP184 T01780139 10200 20178 53006





000
SAUS46 KSGX 230453
MTRCZZ
METAR KCZZ 230452Z AUTO 01004KT 07/04 A3005 RMK AO1 SLP164 T00670039





000
SAUS46 KSGX 230452
MTRSAN
METAR KSAN 230451Z 12004KT 10SM SCT017 BKN250 18/14 A3006 RMK AO2
SLP179 T01780139





000
SAUS46 KSGX 230355
MTRSAN
SPECI KSAN 230354Z 16006KT 10SM SCT015 BKN250 18/14 A3005 RMK AO2





000
SAUS46 KSGX 230353
MTRCZZ
METAR KCZZ 230352Z AUTO 00000KT 08/04 A3005 RMK AO1 SLP165 T00780039





000
SAUS46 KSGX 230352
MTRSAN
METAR KSAN 230351Z 16004KT 10SM BKN019 18/14 A3006 RMK AO2 SLP177
T01830139





000
SAUS46 KSGX 230312
MTRSAN
SPECI KSAN 230311Z 17004KT 10SM BKN017 18/14 A3005 RMK AO2





000
SAUS46 KSGX 230303
MTRSAN
METAR KSAN 230251Z COR 20004KT 10SM SCT015 BKN250 18/14 A3006 RMK
AO2 SLP177 T01830139 53004





000
SAUS46 KSGX 230253
MTRCZZ
METAR KCZZ 230252Z AUTO 32003KT 10/04 A3005 RMK AO1 SLP169 T01000044
53006





000
SAUS46 KSGX 230252
MTRSAN
METAR KSAN 230251Z 20004KT 10SM FEW017 18/14 A3006 RMK AO2 SLP177
T01830139 53004





000
SAUS46 KSGX 230153
MTRCZZ
METAR KCZZ 230152Z AUTO 21008KT 13/05 A3002 RMK AO1 SLP157 T01280050





000
SAUS46 KSGX 230152
MTRSAN
METAR KSAN 230151Z 20003KT 10SM SCT015 BKN250 18/14 A3004 RMK AO2
SLP172 T01830139





000
SAUS46 KSGX 230053
MTRCZZ
METAR KCZZ 230052Z AUTO 23009KT 14/05 A3002 RMK AO1 SLP155 T01440050





000
SAUS46 KSGX 230052
MTRSAN
METAR KSAN 230051Z 24005KT 10SM SCT015 BKN250 19/14 A3005 RMK AO2
SLP175 T01890139





000
SAUS46 KSGX 222353
MTRCZZ
METAR KCZZ 222352Z AUTO 23012KT 17/06 A3003 RMK AO1 SLP154 T01720056
10200 20172 55001





000
SAUS46 KSGX 222352
MTRSAN
METAR KSAN 222351Z 21005KT 10SM FEW015 BKN250 20/14 A3004 RMK AO2
SLP173 T02000139 10217 20183 57009





000
SAUS46 KSGX 222253
MTRCZZ
METAR KCZZ 222252Z AUTO 25013KT 18/03 A3002 RMK AO1 SLP151 T01830028





000
SAUS46 KSGX 222252
MTRSAN
METAR KSAN 222251Z 22008KT 10SM FEW015 BKN250 20/12 A3005 RMK AO2
SLP176 T02000122





000
SAUS46 KSGX 222153
MTRCZZ
METAR KCZZ 222152Z AUTO 26015G21KT 19/03 A3003 RMK AO1 SLP152
T01940028





000
SAUS46 KSGX 222153
MTRCZZ
METAR KCZZ 222152Z AUTO 26015G21KT 19/03 A3003 RMK AO1 SLP152
T01940028





000
SAUS46 KSGX 222152
MTRSAN
METAR KSAN 222151Z 27005KT 10SM BKN250 21/10 A3006 RMK AO2 SLP180
T02110100





000
SAUS46 KSGX 222152
MTRSAN
METAR KSAN 222151Z 27005KT 10SM BKN250 21/10 A3006 RMK AO2 SLP180
T02110100





000
SAUS46 KSGX 222053
MTRCZZ
METAR KCZZ 222052Z AUTO 27007G17KT 19/02 A3003 RMK AO1 SLP153
T01940022 57020





000
SAUS46 KSGX 222052
MTRSAN
METAR KSAN 222051Z 30006KT 10SM SCT250 21/11 A3007 RMK AO2 SLP183
T02110106 58018





000
SAUS46 KSGX 221953
MTRCZZ
METAR KCZZ 221952Z AUTO 29013KT 19/M01 A3005 RMK AO1 SLP158
T01941011





000
SAUS46 KSGX 221952
MTRSAN
METAR KSAN 221951Z 30006KT 10SM FEW050 SCT250 22/08 A3009 RMK AO2
SLP189 T02170078





000
SAUS46 KSGX 221853
MTRCZZ
METAR KCZZ 221852Z AUTO 21010KT 19/02 A3007 RMK AO1 SLP168 T01890017





000
SAUS46 KSGX 221852
MTRSAN
METAR KSAN 221851Z 26004KT 10SM FEW020 SCT250 21/09 A3011 RMK AO2
SLP197 T02060094





000
SAUS46 KSGX 221753
MTRCZZ
METAR KCZZ 221752Z AUTO 22003KT 17/03 A3009 RMK AO1 SLP175 T01720033
10172 20011 50002





000
SAUS46 KSGX 221752
MTRSAN
METAR KSAN 221751Z 00000KT 10SM SCT250 19/09 A3012 RMK AO2 SLP200
SMALL AMNT BLACK FU N T01890089 10189 20128 50006





000
SAUS46 KSGX 221653
MTRCZZ
METAR KCZZ 221652Z AUTO 00000KT 12/05 A3010 RMK AO1 SLP181 T01220050





000
SAUS46 KSGX 221652
MTRSAN
METAR KSAN 221651Z 00000KT 10SM SCT250 17/09 A3013 RMK AO2 SLP201
T01670094





000
SAUS46 KSGX 221553
MTRCZZ
METAR KCZZ 221552Z AUTO 08008KT 07/02 A3010 RMK AO1 SLP183 T00720022





000
SAUS46 KSGX 221553
MTRCZZ
METAR KCZZ 221552Z AUTO 08008KT 07/02 A3010 RMK AO1 SLP183 T00720022





000
SAUS46 KSGX 221552
MTRSAN
METAR KSAN 221551Z 00000KT 10SM SCT250 15/09 A3011 RMK AO2 SLP197
T01500089





000
SAUS46 KSGX 221552
MTRSAN
METAR KSAN 221551Z 00000KT 10SM SCT250 15/09 A3011 RMK AO2 SLP197
T01500089





000
SAUS46 KSGX 221453
MTRCZZ
METAR KCZZ 221452Z AUTO 05005KT 01/M01 A3009 RMK AO1 SLP182
T00111006 53010





000
SAUS46 KSGX 221452
MTRSAN
METAR KSAN 221451Z 00000KT 10SM FEW250 13/09 A3011 RMK AO2 SLP194
T01330089 53007





000
SAUS46 KSGX 221353
MTRCZZ
METAR KCZZ 221352Z AUTO 06007KT 02/00 A3007 RMK AO1 SLP174 T00220000





000
SAUS46 KSGX 221352
MTRSAN
METAR KSAN 221351Z 00000KT 10SM FEW250 13/09 A3009 RMK AO2 SLP189
T01330094





000
SAUS46 KSGX 221253
MTRCZZ
METAR KCZZ 221252Z AUTO 05006KT 02/01 A3005 RMK AO1 SLP165 T00220006





000
SAUS46 KSGX 221252
MTRSAN
METAR KSAN 221251Z 00000KT 10SM CLR 14/10 A3007 RMK AO2 SLP183
T01390100





000
SAUS46 KSGX 221153
MTRCZZ
METAR KCZZ 221152Z AUTO 05007KT 02/01 A3005 RMK AO1 SLP165 70011
T00220006 10050 20011 58001





000
SAUS46 KSGX 221152
MTRSAN
METAR KSAN 221151Z 00000KT 10SM CLR 13/10 A3008 RMK AO2 SLP187 70001
T01330100 10172 20133 53001





000
SAUS46 KSGX 221053
MTRCZZ
METAR KCZZ 221052Z AUTO 06006KT 03/01 A3005 RMK AO1 SLP165 T00280011





000
SAUS46 KSGX 221052
MTRSAN
METAR KSAN 221051Z 00000KT 10SM CLR 16/11 A3008 RMK AO2 SLP185
T01560106





000
SAUS46 KSGX 220953
MTRCZZ
METAR KCZZ 220952Z AUTO 03006KT 03/02 A3005 RMK AO1 SLP165 T00280017





000
SAUS46 KSGX 220952
MTRSAN
METAR KSAN 220951Z 00000KT 10SM CLR 14/11 A3008 RMK AO2 SLP185
T01440106





000
SAUS46 KSGX 220853
MTRCZZ
METAR KCZZ 220852Z AUTO 05004KT 03/02 A3005 RMK AO1 SLP165 T00330022
53002





000
SAUS46 KSGX 220852
MTRSAN
METAR KSAN 220851Z 00000KT 10SM CLR 15/11 A3008 RMK AO2 SLP186
T01500106 52006





000
SAUS46 KSGX 220753
MTRCZZ
METAR KCZZ 220752Z AUTO 03005KT 04/03 A3005 RMK AO1 SLP162 T00440033
401610033





000
SAUS46 KSGX 220752
MTRSAN
METAR KSAN 220751Z 00000KT 10SM CLR 16/11 A3007 RMK AO2 SLP182
T01560106 402060156





000
SAUS46 KSGX 220653
MTRCZZ
METAR KCZZ 220652Z AUTO 09005KT 04/03 A3005 RMK AO1 SLP166 T00440033





000
SAUS46 KSGX 220652
MTRSAN
METAR KSAN 220651Z 00000KT 10SM CLR 16/11 A3007 RMK AO2 SLP183
T01610111





000
SAUS46 KSGX 220553
MTRCZZ
METAR KCZZ 220552Z AUTO 03003KT 04/04 A3005 RMK AO1 SLP164 T00440039
10150 20044 53015





000
SAUS46 KSGX 220552
MTRSAN
METAR KSAN 220551Z 00000KT 10SM CLR 17/11 A3006 RMK AO2 SLP180
T01670111 10194 20167 51013





000
SAUS46 KSGX 220453
MTRCZZ
METAR KCZZ 220452Z AUTO 05005KT 06/05 A3003 RMK AO1 SLP159 T00610050





000
SAUS46 KSGX 220452
MTRSAN
METAR KSAN 220451Z 00000KT 10SM CLR 17/11 A3006 RMK AO2 SLP177
T01720111





000
SAUS46 KSGX 220353
MTRCZZ
METAR KCZZ 220352Z AUTO 08004KT 07/06 A3002 RMK AO1 SLP154 T00670056





000
SAUS46 KSGX 220352
MTRSAN
METAR KSAN 220351Z 00000KT 10SM CLR 18/12 A3004 RMK AO2 SLP172
T01780117





000
SAUS46 KSGX 220253
MTRCZZ
METAR KCZZ 220252Z AUTO 00000KT 10/08 A3000 RMK AO1 SLP145 T01000078
53021





000
SAUS46 KSGX 220252
MTRSAN
METAR KSAN 220251Z VRB04KT 10SM CLR 18/12 A3003 RMK AO2 SLP167
T01780117 53018





000
SAUS46 KSGX 220153
MTRCZZ
METAR KCZZ 220152Z AUTO 25004KT 12/09 A2997 RMK AO1 SLP133 T01170089





000
SAUS46 KSGX 220152
MTRSAN
METAR KSAN 220151Z 31004KT 10SM FEW035 18/12 A3000 RMK AO2 SLP159
T01830117





000
SAUS46 KSGX 220053
MTRCZZ
METAR KCZZ 220052Z AUTO 23005KT 13/09 A2995 RMK AO1 SLP127 T01280089





000
SAUS46 KSGX 220052
MTRSAN
METAR KSAN 220051Z 30005KT 10SM FEW035 18/12 A2998 RMK AO2 SLP153
T01830117





000
SAUS46 KSGX 212353
MTRCZZ
METAR KCZZ 212352Z AUTO 23008KT 15/07 A2993 RMK AO1 SLP118 T01500067
10161 20117 53002





000
SAUS46 KSGX 212352
MTRSAN
METAR KSAN 212351Z 30006KT 10SM FEW035 19/12 A2997 RMK AO2 SLP149
T01940117 10206 20189 53001





000
SAUS46 KSGX 212253
MTRCZZ
METAR KCZZ 212252Z AUTO 29007KT 16/06 A2992 RMK AO1 SLP114 T01610056





000
SAUS46 KSGX 212253
MTRSAN
METAR KSAN 212251Z 29009KT 10SM FEW035 20/11 A2997 RMK AO2 SLP146
T02000111





000
SAUS46 KSGX 212158
MTRCZZ
METAR KCZZ 212152Z AUTO 25010KT 16/07 A2992 RMK AO1 SLP112 T01560067





000
SAUS46 KSGX 212155
MTRSAN
METAR KSAN 212151Z 29007KT 10SM FEW035 20/11 A2996 RMK AO2 SLP146
T02000106





000
SAUS46 KSGX 212053
MTRCZZ
METAR KCZZ 212052Z AUTO 30009KT 16/07 A2993 RMK AO1 SLP115 T01560072
58015





000
SAUS46 KSGX 212052
MTRSAN
METAR KSAN 212051Z 28006KT 10SM FEW030 21/10 A2997 RMK AO2 SLP147
T02060100 58013 $





000
SAUS46 KSGX 211953
MTRCZZ
METAR KCZZ 211952Z AUTO 27009KT 14/07 A2994 RMK AO1 SLP123 T01390072





000
SAUS46 KSGX 211952
MTRSAN
METAR KSAN 211951Z 31005KT 10SM FEW027 SCT042 20/11 A2999 RMK AO2
SLP153 T02000111





000
SAUS46 KSGX 211853
MTRCZZ
METAR KCZZ 211852Z AUTO 29009KT 13/08 A2996 RMK AO1 SLP129 T01330083





000
SAUS46 KSGX 211852
MTRSAN
METAR KSAN 211851Z 30007KT 10SM SCT027 SCT042 20/11 A3000 RMK AO2
SLP158 T02000111





000
SAUS46 KSGX 211753
MTRCZZ
METAR KCZZ 211752Z AUTO 27008KT 12/08 A2997 RMK AO1 SLP138 60011
T01170083 10117 20100 51009





000
SAUS46 KSGX 211752
MTRSAN
METAR KSAN 211751Z 30003KT 10SM SCT027 SCT042 19/12 A3001 RMK AO2
SLP161 60001 T01890117 10194 20167 51011 $





000
SAUS46 KSGX 211653
MTRCZZ
METAR KCZZ 211652Z AUTO 00000KT 11/09 A2997 RMK AO1 SLP136 P0001
T01060094





000
SAUS46 KSGX 211652
MTRSAN
METAR KSAN 211651Z 03003KT 10SM FEW030 SCT042 18/12 A3001 RMK AO2
SLP160 T01830122 $





000
SAUS46 KSGX 211553
MTRCZZ
METAR KCZZ 211552Z AUTO 21005KT 10/09 A2996 RMK AO1 SLP130 P0006
T01000094





000
SAUS46 KSGX 211553
MTRCZZ
METAR KCZZ 211552Z AUTO 21005KT 10/09 A2996 RMK AO1 SLP130 P0006
T01000094





000
SAUS46 KSGX 211552
MTRSAN
METAR KSAN 211551Z 02006KT 10SM FEW030 BKN045 18/12 A3000 RMK AO2
SLP158 T01780122 $





000
SAUS46 KSGX 211552
MTRSAN
METAR KSAN 211551Z 02006KT 10SM FEW030 BKN045 18/12 A3000 RMK AO2
SLP158 T01780122 $





000
SAUS46 KSGX 211453
MTRCZZ
METAR KCZZ 211452Z AUTO 20007KT 10/09 A2994 RMK AO1 SLP124 P0001
60004 T01000089 53008





000
SAUS46 KSGX 211452
MTRSAN
METAR KSAN 211451Z 31005KT 10SM FEW025 SCT040 BKN075 17/12 A2998 RMK
AO2 SLP150 60001 T01720117 53006





000
SAUS46 KSGX 211353
MTRCZZ
METAR KCZZ 211352Z AUTO 25008KT 10/08 A2992 RMK AO1 SLP117 T01000083





000
SAUS46 KSGX 211352
MTRSAN
METAR KSAN 211351Z 29007KT 10SM FEW025 BKN039 BKN075 17/12 A2996 RMK
AO2 RAE1258B14E28 SLP145 P0001 T01670122





000
SAUS46 KSGX 211253
MTRCZZ
METAR KCZZ 211252Z AUTO 23011KT 10/09 A2991 RMK AO1 SLP110 P0003
T01000094





000
SAUS46 KSGX 211252
MTRSAN
METAR KSAN 211251Z 28006KT 10SM -RA FEW027 BKN050 OVC060 17/12 A2996
RMK AO2 RAB20E30B47 SLP145 P0000 T01720122





000
SAUS46 KSGX 211153
MTRCZZ
METAR KCZZ 211152Z AUTO 22008KT 10/09 A2992 RMK AO1 SLP110 60001
70001 T01000094 10111 20061 58015





000
SAUS46 KSGX 211152
MTRSAN
METAR KSAN 211151Z 28009KT 10SM FEW024 BKN039 BKN050 17/12 A2996 RMK
AO2 SLP144 60000 70003 T01720122 10178 20161 58011





000
SAUS46 KSGX 211053
MTRCZZ
METAR KCZZ 211052Z AUTO 21008KT 11/09 A2993 RMK AO1 SLP115 P0001
T01060094





000
SAUS46 KSGX 211052
MTRSAN
METAR KSAN 211051Z 28010KT 10SM FEW024 BKN030 BKN040 17/12 A2997 RMK
AO2 RAE26 SLP148 P0000 T01720122





000
SAUS46 KSGX 211042
MTRSAN
SPECI KSAN 211041Z 27007KT 10SM SCT024 SCT030 OVC040 17/13 A2997 RMK
AO2 RAE26 P0000





000
SAUS46 KSGX 211017
MTRSAN
SPECI KSAN 211016Z 20003KT 10SM -RA BKN024 BKN030 OVC040 17/13 A2998
RMK AO2 P0000





000
SAUS46 KSGX 211017
MTRSAN
SPECI KSAN 211016Z 20003KT 10SM -RA BKN024 BKN030 OVC040 17/13 A2998
RMK AO2 P0000





000
SAUS46 KSGX 210953
MTRCZZ
METAR KCZZ 210952Z AUTO 24008KT 11/09 A2995 RMK AO1 SLP119 T01060094





000
SAUS46 KSGX 210952
MTRSAN
METAR KSAN 210951Z 26008KT 8SM -RA FEW027 OVC044 17/13 A2999 RMK AO2
RAB47 SLP155 P0000 T01670128





000
SAUS46 KSGX 210930
MTRSAN
SPECI KSAN 210929Z 24005KT 10SM SCT021 OVC050 17/12 A2999 RMK AO2





000
SAUS46 KSGX 210901
MTRSAN
SPECI KSAN 210901Z 27007KT 10SM SCT019 BKN026 OVC055 18/13 A2999 RMK
AO2





000
SAUS46 KSGX 210853
MTRCZZ
METAR KCZZ 210852Z AUTO 15003KT 09/07 A2996 RMK AO1 SLP125 T00940072
58008





000
SAUS46 KSGX 210852
MTRSAN
METAR KSAN 210851Z 20003KT 10SM SCT027 BKN060 OVC150 18/12 A2999 RMK
AO2 SLP155 T01780122 58009





000
SAUS46 KSGX 210753
MTRCZZ
METAR KCZZ 210752Z AUTO 00000KT 09/06 A2997 RMK AO1 SLP129 T00890061
401941011





000
SAUS46 KSGX 210752
MTRSAN
METAR KSAN 210751Z 00000KT 10SM FEW025 BKN060 BKN150 18/13 A3000 RMK
AO2 SLP160 T01780128 402110122





000
SAUS46 KSGX 210653
MTRCZZ
METAR KCZZ 210652Z AUTO 08003KT 08/06 A2999 RMK AO1 SLP135 T00780056





000
SAUS46 KSGX 210652
MTRSAN
METAR KSAN 210651Z 29004KT 10SM FEW025 SCT038 BKN055 17/12 A3002 RMK
AO2 SLP164 T01720122





000
SAUS46 KSGX 210553
MTRCZZ
METAR KCZZ 210552Z AUTO 00000KT 06/04 A2999 RMK AO1 SLP138 T00610044
10172 20061 58006





000
SAUS46 KSGX 210552
MTRSAN
METAR KSAN 210551Z 29005KT 10SM SCT025 BKN039 BKN050 18/12 A3002 RMK
AO2 SLP164 60003 T01780122 10189 20172 58005





000
SAUS46 KSGX 210453
MTRCZZ
METAR KCZZ 210452Z AUTO 36003KT 08/06 A3000 RMK AO1 SLP141 T00780061





000
SAUS46 KSGX 210452
MTRSAN
METAR KSAN 210451Z 29004KT 10SM FEW023 BKN040 BKN050 17/13 A3003 RMK
AO2 SLP168 T01720128





000
SAUS46 KSGX 210353
MTRCZZ
METAR KCZZ 210352Z AUTO 00000KT 11/08 A3001 RMK AO1 SLP148 T01060083





000
SAUS46 KSGX 210353
MTRCZZ
METAR KCZZ 210352Z AUTO 00000KT 11/08 A3001 RMK AO1 SLP148 T01060083





000
SAUS46 KSGX 210352
MTRSAN
METAR KSAN 210351Z 30003KT 10SM FEW020 SCT050 18/13 A3002 RMK AO2
SLP165 T01780128





000
SAUS46 KSGX 210352
MTRSAN
METAR KSAN 210351Z 30003KT 10SM FEW020 SCT050 18/13 A3002 RMK AO2
SLP165 T01780128





000
SAUS46 KSGX 210309
MTRSAN
SPECI KSAN 210308Z 31004KT 10SM FEW020 SCT027 SCT050 18/13 A3003 RMK
AO2





000
SAUS46 KSGX 210309
MTRSAN
SPECI KSAN 210308Z 31004KT 10SM FEW020 SCT027 SCT050 18/13 A3003 RMK
AO2





000
SAUS46 KSGX 210253
MTRCZZ
METAR KCZZ 210252Z AUTO 24004KT 11/08 A3001 RMK AO1 SLP155 T01110083
51009





000
SAUS46 KSGX 210252
MTRSAN
METAR KSAN 210251Z 30006KT 10SM SCT022 BKN027 BKN050 18/13 A3003 RMK
AO2 SLP168 60003 T01780128 56002





000
SAUS46 KSGX 210232
MTRSAN
SPECI KSAN 210231Z 30008KT 10SM SCT022 BKN027 BKN050 18/13 A3004 RMK
AO2





000
SAUS46 KSGX 210153
MTRCZZ
METAR KCZZ 210152Z AUTO 25007KT 13/09 A3000 RMK AO1 SLP150 T01280089





000
SAUS46 KSGX 210152
MTRSAN
METAR KSAN 210151Z 30007KT 10SM FEW019 SCT039 BKN050 18/14 A3003 RMK
AO2 SLP170 T01830139





000
SAUS46 KSGX 210101
MTRSAN
SPECI KSAN 210100Z 31009KT 10SM FEW015 SCT027 BKN041 18/14 A3003 RMK
AO2





000
SAUS46 KSGX 210053
MTRCZZ
METAR KCZZ 210052Z AUTO 27009KT 14/09 A3000 RMK AO1 SLP149 T01440089





000
SAUS46 KSGX 210052
MTRSAN
METAR KSAN 210051Z 31007KT 10SM FEW015 BKN029 BKN037 18/14 A3003 RMK
AO2 RAB23E48 SLP169 P0003 T01830144





000
SAUS46 KSGX 202353
MTRCZZ
METAR KCZZ 202352Z AUTO 23010KT 17/06 A2998 RMK AO1 SLP140 T01720061
10194 20172 58010





000
SAUS46 KSGX 202352
MTRSAN
METAR KSAN 202351Z 29009KT 10SM BKN017 BKN100 BKN230 19/14 A3004 RMK
AO2 SLP170 T01890139 10211 20183 55005





000
SAUS46 KSGX 202346
MTRSAN
SPECI KSAN 202345Z 29009KT 10SM BKN017 BKN100 BKN250 19/14 A3004 RMK
AO2





000
SAUS46 KSGX 202253
MTRCZZ
METAR KCZZ 202252Z AUTO 29008KT 18/02 A2999 RMK AO1 SLP140 T01780017





000
SAUS46 KSGX 202252
MTRSAN
METAR KSAN 202251Z 30008KT 10SM FEW025 SCT100 BKN250 20/13 A3002 RMK
AO2 SLP165 T02000128





000
SAUS46 KSGX 202153
MTRCZZ
METAR KCZZ 202152Z AUTO 25011G17KT 18/M01 A3000 RMK AO1 SLP147
T01831006





000
SAUS46 KSGX 202152
MTRSAN
METAR KSAN 202151Z 31008KT 10SM FEW025 SCT250 21/12 A3004 RMK AO2
SLP171 T02060122 $





000
SAUS46 KSGX 202053
MTRCZZ
METAR KCZZ 202052Z AUTO 26009G19KT 19/M01 A3001 RMK AO1 SLP148
T01891011 56021





000
SAUS46 KSGX 202052
MTRSAN
METAR KSAN 202051Z 30010KT 10SM FEW025 SCT250 21/12 A3005 RMK AO2
SLP176 T02060117 56025 $





000
SAUS46 KSGX 201953
MTRCZZ
METAR KCZZ 201952Z AUTO 21013KT 19/M04 A3002 RMK AO1 SLP153
T01891039





000
SAUS46 KSGX 201952
MTRSAN
METAR KSAN 201951Z 30009KT 10SM FEW020 BKN250 21/12 A3008 RMK AO2
SLP184 T02110122





000
SAUS46 KSGX 201853
MTRCZZ
METAR KCZZ 201852Z AUTO 21011KT 18/M06 A3005 RMK AO1 SLP161
T01831061





000
SAUS46 KSGX 201852
MTRSAN
METAR KSAN 201851Z 29006KT 10SM FEW020 BKN250 21/12 A3010 RMK AO2
SLP191 T02060117





000
SAUS46 KSGX 201753
MTRCZZ
METAR KCZZ 201752Z AUTO 21008KT 17/M09 A3008 RMK AO1 SLP170
T01721094 10172 21011 58003





000
SAUS46 KSGX 201752
MTRSAN
METAR KSAN 201751Z 00000KT 10SM FEW020 SCT250 18/09 A3013 RMK AO2
SLP201 T01830089 10183 20122 50004





000
SAUS46 KSGX 201653
MTRCZZ
METAR KCZZ 201652Z AUTO 00000KT 14/M07 A3009 RMK AO1 SLP179
T01391067





000
SAUS46 KSGX 201652
MTRSAN
METAR KSAN 201651Z 00000KT 10SM FEW020 SCT250 17/07 A3014 RMK AO2
SLP204 T01670067





000
SAUS46 KSGX 201553
MTRCZZ
METAR KCZZ 201552Z AUTO 02003KT 08/M08 A3009 RMK AO1 SLP183
T00781083





000
SAUS46 KSGX 201552
MTRSAN
METAR KSAN 201551Z 00000KT 10SM FEW020 SCT250 15/05 A3014 RMK AO2
SLP204 T01500050





000
SAUS46 KSGX 201453
MTRCZZ
METAR KCZZ 201452Z AUTO 06004KT 00/M11 A3009 RMK AO1 SLP185
T00001111 53005





000
SAUS46 KSGX 201452
MTRSAN
METAR KSAN 201451Z 00000KT 10SM FEW250 14/04 A3012 RMK AO2 SLP197
T01390044 53005





000
SAUS46 KSGX 201353
MTRCZZ
METAR KCZZ 201352Z AUTO 06005KT 00/M11 A3008 RMK AO1 SLP178
T00001111





000
SAUS46 KSGX 201352
MTRSAN
METAR KSAN 201351Z 00000KT 10SM CLR 13/05 A3011 RMK AO2 SLP194
T01330050





    US Dept of Commerce
    National Oceanic and Atmospheric Administration
    National Weather Service
    1325 East West Highway
    Silver Spring, MD 20910
    Page Author: NWS Internet Services Team
Disclaimer
Information Quality
Credits
Glossary
Privacy Policy
Freedom of Information Act (FOIA)
About Us
Career Opportunities